Pur-navolok — UBNE8 — position and weather

sailwx.info

Track history (hours):
 
Tides and Currents Weather Stations Pressure Air Temp Water Temp Dewpoint Dewpoint Depression Visibility Wind Speed Wind Dir Waves Ship Positions

Pur-navolok

Last reported at 2018-Jul-30 20:23 UTC. Time now 2018-Aug-19 15:20 UTC.
Position N 56°33' E 043°32'.
Warning: this ship's position is 19 days out of date.

Length 87 m; draft 2.2 m.

Type: Cargo ship. MMSI: 273314480.

Date/timePositionNaut miles runAvg speedWind from/ knotsBaromVisibWave heightAir tempDewpointWater temp
2018-Jul-30 20:23N 56°33' E 043°32'3 5.6
2018-Jul-30 19:56N 56°32' E 043°36'3 6.0
2018-Jul-30 19:24N 56°29' E 043°38'2 5.7
2018-Jul-30 18:58N 56°27' E 043°42'3 5.6
2018-Jul-30 18:30N 56°25' E 043°45'2 5.1
2018-Jul-30 18:00N 56°25' E 043°50'3 6.0
2018-Jul-30 17:28N 56°22' E 043°53'3 6.7
2018-Jul-30 16:59N 56°21' E 043°58'3 7.1
2018-Jul-30 16:30N 56°20' E 044°04'3 6.6
2018-Jul-30 16:01N 56°18' E 044°07'0 0.0
2018-Jul-30 15:31N 56°18' E 044°07'0 0.0
2018-Jul-30 15:00N 56°18' E 044°07'0 0.0
2018-Jul-30 14:29N 56°18' E 044°07'0 0.0
2018-Jul-30 14:00N 56°18' E 044°07'0 0.0
2018-Jul-30 13:30N 56°18' E 044°07'0 0.0
2018-Jul-30 13:00N 56°18' E 044°07'2 4.1
2018-Jul-30 12:30N 56°20' E 044°06'1 2.4
2018-Jul-30 12:00N 56°20' E 044°04'0 0.1
2018-Jul-30 11:26N 56°20' E 044°04'0 0.0
2018-Jul-30 11:00N 56°20' E 044°04'0 0.0
2018-Jul-30 10:27N 56°20' E 044°04'0 0.0
2018-Jul-30 09:59N 56°20' E 044°04'0 0.0
2018-Jul-30 09:28N 56°20' E 044°04'0 0.0
2018-Jul-30 09:00N 56°20' E 044°04'0 0.1
2018-Jul-30 08:27N 56°20' E 044°04'3 5.6
2018-Jul-30 07:58N 56°18' E 044°07'3 6.4
2018-Jul-30 07:26N 56°16' E 044°11'5 6.5
2018-Jul-30 06:40N 56°11' E 044°12'  
Track history (hours):
 
Tides and Currents Weather Stations Pressure Air Temp Water Temp Dewpoint Dewpoint Depression Visibility Wind Speed Wind Dir Waves Ship Positions

Pur-navolok

Last reported at 2018-Jul-30 20:23 UTC. Time now 2018-Aug-19 15:20 UTC.
Position N 56°33' E 043°32'.
Warning: this ship's position is 19 days out of date.

Length 87 m; draft 2.2 m.

Type: Cargo ship. MMSI: 273314480.

Date/timePositionNaut miles runAvg speedWind from/ knotsBaromVisibWave heightAir tempDewpointWater temp
2018-Jul-30 20:23N 56°33' E 043°32'3 5.6
2018-Jul-30 19:56N 56°32' E 043°36'3 6.0
2018-Jul-30 19:24N 56°29' E 043°38'2 5.7
2018-Jul-30 18:58N 56°27' E 043°42'3 5.6
2018-Jul-30 18:30N 56°25' E 043°45'2 5.1
2018-Jul-30 18:00N 56°25' E 043°50'3 6.0
2018-Jul-30 17:28N 56°22' E 043°53'3 6.7
2018-Jul-30 16:59N 56°21' E 043°58'3 7.1
2018-Jul-30 16:30N 56°20' E 044°04'3 6.6
2018-Jul-30 16:01N 56°18' E 044°07'0 0.0
2018-Jul-30 15:31N 56°18' E 044°07'0 0.0
2018-Jul-30 15:00N 56°18' E 044°07'0 0.0
2018-Jul-30 14:29N 56°18' E 044°07'0 0.0
2018-Jul-30 14:00N 56°18' E 044°07'0 0.0
2018-Jul-30 13:30N 56°18' E 044°07'0 0.0
2018-Jul-30 13:00N 56°18' E 044°07'2 4.1
2018-Jul-30 12:30N 56°20' E 044°06'1 2.4
2018-Jul-30 12:00N 56°20' E 044°04'0 0.1
2018-Jul-30 11:26N 56°20' E 044°04'0 0.0
2018-Jul-30 11:00N 56°20' E 044°04'0 0.0
2018-Jul-30 10:27N 56°20' E 044°04'0 0.0
2018-Jul-30 09:59N 56°20' E 044°04'0 0.0
2018-Jul-30 09:28N 56°20' E 044°04'0 0.0
2018-Jul-30 09:00N 56°20' E 044°04'0 0.1
2018-Jul-30 08:27N 56°20' E 044°04'3 5.6
2018-Jul-30 07:58N 56°18' E 044°07'3 6.4
2018-Jul-30 07:26N 56°16' E 044°11'5 6.5
2018-Jul-30 06:40N 56°11' E 044°12'  

Dump ship's entire track history